KPLR/PLR METAR and TAF weather

Enter ICAO airport designator
Station Type Date Time Source
KPLR METAR 2019/02/17 15:55 UTC NOAA

KPLR 171555Z AUTO 00000KT 5SM BR OVC004 12/12 A2991 RMK A01


Station Type Date Time Source
KPLR Decoded METAR 2019/02/17 15:55 UTC NOAA

Station name not available
Feb 17, 2019 - 10:55 AM EST / 2019.02.17 1555 UTC
Wind: Calm:0
Visibility: 5 mile(s):0
Sky conditions: overcast
Weather: mist
Temperature: 53 F (12 C)
Dew Point: 53 F (12 C)
Relative Humidity: 100%
Pressure (altimeter): 29.91 in. Hg (1012 hPa)
ob: KPLR 171555Z AUTO 00000KT 5SM BR OVC004 12/12 A2991 RMK A01
cycle: 16

Station Type Date Time Source
KPLR TAF UTC NOAA

Error!


Example: see airport list